Mastic Beach, NY (11951)

9:39 AM EST on February 10, 2016 (GMT -0500)
Mastic Beach - Joe | | Change Station
CLOSE
Current Station
Personal Weather Station
Location: Mastic Beach, NY
Elevation: 20 ft
Nearby Weather Stations

Elev 20 ft 40.77 °N, 72.84 °W | Updated 7 minutes ago

Snow
Snow
34.7 °F
Feels Like 35 °F
N
0.0
Wind Variable Wind from WNW

Today
High -- | Low -- °F
--% Chance of Precip.
Yesterday
High -- | Low -- °F
Precip. -- in
Pressure 29.62 in
Visibility 2.0 miles
Clouds Few 1500 ft
Mostly Cloudy 2500 ft
Overcast 3100 ft
Windchill 35 °F
Dew Point 32 °F
Humidity 91%
Rainfall 0.00 in
Snow Depth Not available.
6:52 AM 5:19 PM
Waxing Crescent, 5% visible
SPECI KHWV 101406Z AUTO 00000KT 2SM -SN BR FEW015 BKN025 OVC031 M01/M01 A2962 RMK AO2 SNB1357 P0000 T10061011 TSNO
Pressure 29.62 in
Visibility 2.0 miles
Clouds Few 1500 ft
Mostly Cloudy 2500 ft
Overcast 3100 ft
Windchill 35 °F
Dew Point 32 °F
Humidity 91%
Rainfall 0.00 in
Snow Depth Not available.
6:52 AM 5:19 PM
Waxing Crescent, 5% visible
SPECI KHWV 101406Z AUTO 00000KT 2SM -SN BR FEW015 BKN025 OVC031 M01/M01 A2962 RMK AO2 SNB1357 P0000 T10061011 TSNO

10-Day Weather Forecast

Almanac

Astronomy

Feb. 10, 2016 Rise Set
Actual Time
Civil Twilight
Nautical Twilight
Astronomical Twilight
Moon
Length of Visible Light
Length of Day
Tomorrow will be .
, % of the Moon is Illuminated

Today's Extremes

State Highs State Lows

Community

WunderPhotos

Upload Photos

1,891,855 photos uploaded!

WunderBlog® & News

Nearby

Air Quality

  Air Quality AQ Index Pollutant
Not available.

Snow Depth

Station Depth Elevation

Earthquake Activity

City Distance Mag. Time & Date
Minimum magnitude displayed is 2.5.

Coastal Water Temperatures

Place Temperature

Stations

Nearby Weather Stations

Station Location Temp. Windchill Dew Point Humidity Wind Precip. Elev Updated Type
                   

Watches & Warnings

There are currently no watches in effect.